sensor_id;sensor_type;location;lat;lon;timestamp;P1;durP1;ratioP1;P2;durP2;ratioP2
3726;SDS011;1879;45.876;12.300;2023-09-08T00:01:05;9.00;;;8.17;;
3726;SDS011;1879;45.876;12.300;2023-09-08T00:03:32;8.37;;;7.67;;
3726;SDS011;1879;45.876;12.300;2023-09-08T00:06:00;8.50;;;7.70;;
3726;SDS011;1879;45.876;12.300;2023-09-08T00:08:27;8.60;;;7.90;;
3726;SDS011;1879;45.876;12.300;2023-09-08T00:10:54;9.50;;;8.60;;
3726;SDS011;1879;45.876;12.300;2023-09-08T00:13:22;8.40;;;7.70;;
3726;SDS011;1879;45.876;12.300;2023-09-08T00:15:49;8.50;;;7.80;;
3726;SDS011;1879;45.876;12.300;2023-09-08T00:18:16;9.93;;;9.00;;
3726;SDS011;1879;45.876;12.300;2023-09-08T00:20:43;9.23;;;7.87;;
3726;SDS011;1879;45.876;12.300;2023-09-08T00:23:10;8.43;;;7.63;;
3726;SDS011;1879;45.876;12.300;2023-09-08T00:25:37;8.60;;;7.90;;
3726;SDS011;1879;45.876;12.300;2023-09-08T00:28:04;8.40;;;7.70;;
3726;SDS011;1879;45.876;12.300;2023-09-08T00:30:33;8.63;;;7.83;;
3726;SDS011;1879;45.876;12.300;2023-09-08T00:33:00;8.93;;;7.60;;
3726;SDS011;1879;45.876;12.300;2023-09-08T00:35:27;8.77;;;8.00;;
3726;SDS011;1879;45.876;12.300;2023-09-08T00:37:54;8.20;;;7.50;;
3726;SDS011;1879;45.876;12.300;2023-09-08T00:40:21;8.27;;;7.60;;
3726;SDS011;1879;45.876;12.300;2023-09-08T00:42:48;10.70;;;7.90;;
3726;SDS011;1879;45.876;12.300;2023-09-08T00:45:15;8.53;;;7.80;;
3726;SDS011;1879;45.876;12.300;2023-09-08T00:47:43;8.70;;;7.90;;
3726;SDS011;1879;45.876;12.300;2023-09-08T00:50:10;8.33;;;7.53;;
3726;SDS011;1879;45.876;12.300;2023-09-08T00:52:38;9.43;;;8.60;;
3726;SDS011;1879;45.876;12.300;2023-09-08T00:55:05;9.73;;;8.77;;
3726;SDS011;1879;45.876;12.300;2023-09-08T00:57:33;8.90;;;8.00;;
3726;SDS011;1879;45.876;12.300;2023-09-08T01:00:00;8.80;;;8.00;;
3726;SDS011;1879;45.876;12.300;2023-09-08T01:02:29;7.93;;;7.13;;
3726;SDS011;1879;45.876;12.300;2023-09-08T01:04:58;9.10;;;8.30;;
3726;SDS011;1879;45.876;12.300;2023-09-08T01:07:25;8.20;;;7.50;;
3726;SDS011;1879;45.876;12.300;2023-09-08T01:09:55;8.30;;;7.57;;
3726;SDS011;1879;45.876;12.300;2023-09-08T01:12:28;8.63;;;7.83;;
3726;SDS011;1879;45.876;12.300;2023-09-08T01:14:55;7.73;;;7.03;;
3726;SDS011;1879;45.876;12.300;2023-09-08T01:17:22;8.50;;;7.80;;
3726;SDS011;1879;45.876;12.300;2023-09-08T01:19:49;9.20;;;8.30;;
3726;SDS011;1879;45.876;12.300;2023-09-08T01:22:34;7.97;;;7.17;;
3726;SDS011;1879;45.876;12.300;2023-09-08T01:25:19;8.30;;;7.60;;
3726;SDS011;1879;45.876;12.300;2023-09-08T01:27:48;8.40;;;7.60;;
3726;SDS011;1879;45.876;12.300;2023-09-08T01:30:17;8.70;;;7.87;;
3726;SDS011;1879;45.876;12.300;2023-09-08T01:32:44;9.53;;;8.20;;
3726;SDS011;1879;45.876;12.300;2023-09-08T01:35:12;9.00;;;8.10;;
3726;SDS011;1879;45.876;12.300;2023-09-08T01:37:40;10.27;;;7.70;;
3726;SDS011;1879;45.876;12.300;2023-09-08T01:40:08;12.83;;;7.43;;
3726;SDS011;1879;45.876;12.300;2023-09-08T01:42:37;7.10;;;6.60;;
3726;SDS011;1879;45.876;12.300;2023-09-08T01:45:05;9.03;;;7.67;;
3726;SDS011;1879;45.876;12.300;2023-09-08T01:47:33;8.47;;;7.77;;
3726;SDS011;1879;45.876;12.300;2023-09-08T01:50:00;8.33;;;7.63;;
3726;SDS011;1879;45.876;12.300;2023-09-08T01:52:27;8.40;;;7.60;;
3726;SDS011;1879;45.876;12.300;2023-09-08T01:54:54;9.30;;;8.40;;
3726;SDS011;1879;45.876;12.300;2023-09-08T01:57:21;9.40;;;8.43;;
3726;SDS011;1879;45.876;12.300;2023-09-08T01:59:50;8.93;;;8.20;;
3726;SDS011;1879;45.876;12.300;2023-09-08T02:02:17;8.33;;;7.63;;
3726;SDS011;1879;45.876;12.300;2023-09-08T02:04:44;9.27;;;8.47;;
3726;SDS011;1879;45.876;12.300;2023-09-08T02:07:11;9.60;;;7.87;;
3726;SDS011;1879;45.876;12.300;2023-09-08T02:09:38;8.57;;;7.77;;
3726;SDS011;1879;45.876;12.300;2023-09-08T02:12:05;9.83;;;9.03;;
3726;SDS011;1879;45.876;12.300;2023-09-08T02:14:32;10.07;;;8.50;;
3726;SDS011;1879;45.876;12.300;2023-09-08T02:17:01;9.93;;;9.03;;
3726;SDS011;1879;45.876;12.300;2023-09-08T02:19:28;9.27;;;8.47;;
3726;SDS011;1879;45.876;12.300;2023-09-08T02:21:55;9.27;;;8.47;;
3726;SDS011;1879;45.876;12.300;2023-09-08T02:24:22;10.00;;;9.10;;
3726;SDS011;1879;45.876;12.300;2023-09-08T02:26:49;9.30;;;8.33;;
3726;SDS011;1879;45.876;12.300;2023-09-08T02:29:16;9.07;;;8.27;;
3726;SDS011;1879;45.876;12.300;2023-09-08T02:31:43;9.10;;;8.27;;
3726;SDS011;1879;45.876;12.300;2023-09-08T02:34:12;8.73;;;7.60;;
3726;SDS011;1879;45.876;12.300;2023-09-08T02:36:39;8.87;;;8.07;;
3726;SDS011;1879;45.876;12.300;2023-09-08T02:39:06;9.70;;;8.80;;
3726;SDS011;1879;45.876;12.300;2023-09-08T02:41:33;9.20;;;8.40;;
3726;SDS011;1879;45.876;12.300;2023-09-08T02:44:00;11.80;;;8.87;;
3726;SDS011;1879;45.876;12.300;2023-09-08T02:46:28;10.03;;;9.13;;
3726;SDS011;1879;45.876;12.300;2023-09-08T02:48:55;10.67;;;8.20;;
3726;SDS011;1879;45.876;12.300;2023-09-08T02:51:23;22.20;;;9.23;;
3726;SDS011;1879;45.876;12.300;2023-09-08T02:53:50;9.60;;;8.60;;
3726;SDS011;1879;45.876;12.300;2023-09-08T02:56:17;10.17;;;9.10;;
3726;SDS011;1879;45.876;12.300;2023-09-08T02:58:44;10.00;;;9.00;;
3726;SDS011;1879;45.876;12.300;2023-09-08T03:01:12;10.50;;;9.43;;
3726;SDS011;1879;45.876;12.300;2023-09-08T03:03:40;9.83;;;8.93;;
3726;SDS011;1879;45.876;12.300;2023-09-08T03:06:08;11.13;;;9.00;;
3726;SDS011;1879;45.876;12.300;2023-09-08T03:08:36;10.30;;;8.30;;
3726;SDS011;1879;45.876;12.300;2023-09-08T03:11:04;9.27;;;8.57;;
3726;SDS011;1879;45.876;12.300;2023-09-08T03:13:31;9.03;;;8.33;;
3726;SDS011;1879;45.876;12.300;2023-09-08T03:16:01;10.00;;;9.20;;
3726;SDS011;1879;45.876;12.300;2023-09-08T03:18:30;9.33;;;8.43;;
3726;SDS011;1879;45.876;12.300;2023-09-08T03:20:57;10.17;;;9.27;;
3726;SDS011;1879;45.876;12.300;2023-09-08T03:23:25;10.27;;;9.07;;
3726;SDS011;1879;45.876;12.300;2023-09-08T03:25:54;10.63;;;9.57;;
3726;SDS011;1879;45.876;12.300;2023-09-08T03:28:21;9.80;;;8.90;;
3726;SDS011;1879;45.876;12.300;2023-09-08T03:30:48;10.20;;;9.30;;
3726;SDS011;1879;45.876;12.300;2023-09-08T03:33:16;10.53;;;9.53;;
3726;SDS011;1879;45.876;12.300;2023-09-08T03:35:44;9.23;;;8.43;;
3726;SDS011;1879;45.876;12.300;2023-09-08T03:38:11;8.80;;;8.10;;
3726;SDS011;1879;45.876;12.300;2023-09-08T03:40:38;10.50;;;8.20;;
3726;SDS011;1879;45.876;12.300;2023-09-08T03:43:06;8.87;;;8.07;;
3726;SDS011;1879;45.876;12.300;2023-09-08T03:45:33;9.50;;;8.67;;
3726;SDS011;1879;45.876;12.300;2023-09-08T03:48:00;8.80;;;8.10;;
3726;SDS011;1879;45.876;12.300;2023-09-08T03:50:30;8.93;;;8.13;;
3726;SDS011;1879;45.876;12.300;2023-09-08T03:52:57;8.73;;;8.03;;
3726;SDS011;1879;45.876;12.300;2023-09-08T03:55:24;11.27;;;9.13;;
3726;SDS011;1879;45.876;12.300;2023-09-08T03:57:51;9.37;;;8.67;;
3726;SDS011;1879;45.876;12.300;2023-09-08T04:00:20;9.40;;;8.40;;
3726;SDS011;1879;45.876;12.300;2023-09-08T04:02:47;10.50;;;8.63;;
3726;SDS011;1879;45.876;12.300;2023-09-08T04:05:15;10.23;;;8.43;;
3726;SDS011;1879;45.876;12.300;2023-09-08T04:07:42;8.30;;;7.50;;
3726;SDS011;1879;45.876;12.300;2023-09-08T04:10:09;8.97;;;7.33;;
3726;SDS011;1879;45.876;12.300;2023-09-08T04:12:37;9.20;;;8.30;;
3726;SDS011;1879;45.876;12.300;2023-09-08T04:15:05;10.00;;;9.10;;
3726;SDS011;1879;45.876;12.300;2023-09-08T04:17:34;8.70;;;7.90;;
3726;SDS011;1879;45.876;12.300;2023-09-08T04:20:01;9.30;;;8.50;;
3726;SDS011;1879;45.876;12.300;2023-09-08T04:22:30;9.57;;;8.67;;
3726;SDS011;1879;45.876;12.300;2023-09-08T04:24:57;8.37;;;7.40;;
3726;SDS011;1879;45.876;12.300;2023-09-08T04:27:24;8.60;;;8.00;;
3726;SDS011;1879;45.876;12.300;2023-09-08T04:29:51;8.90;;;8.00;;
3726;SDS011;1879;45.876;12.300;2023-09-08T04:32:18;8.33;;;7.63;;
3726;SDS011;1879;45.876;12.300;2023-09-08T04:34:46;8.13;;;7.33;;
3726;SDS011;1879;45.876;12.300;2023-09-08T04:37:14;8.23;;;7.53;;
3726;SDS011;1879;45.876;12.300;2023-09-08T04:39:41;9.70;;;8.70;;
3726;SDS011;1879;45.876;12.300;2023-09-08T04:42:09;8.57;;;7.87;;
3726;SDS011;1879;45.876;12.300;2023-09-08T04:44:36;9.03;;;8.23;;
3726;SDS011;1879;45.876;12.300;2023-09-08T04:47:03;9.60;;;8.70;;
3726;SDS011;1879;45.876;12.300;2023-09-08T04:49:30;8.90;;;8.10;;
3726;SDS011;1879;45.876;12.300;2023-09-08T04:51:59;9.23;;;8.37;;
3726;SDS011;1879;45.876;12.300;2023-09-08T04:54:26;7.93;;;7.23;;
3726;SDS011;1879;45.876;12.300;2023-09-08T04:56:53;8.50;;;7.70;;
3726;SDS011;1879;45.876;12.300;2023-09-08T04:59:20;8.63;;;7.57;;
3726;SDS011;1879;45.876;12.300;2023-09-08T05:01:48;10.53;;;7.53;;
3726;SDS011;1879;45.876;12.300;2023-09-08T05:04:16;8.90;;;8.00;;
3726;SDS011;1879;45.876;12.300;2023-09-08T05:06:43;10.70;;;8.20;;
3726;SDS011;1879;45.876;12.300;2023-09-08T05:09:12;10.40;;;7.80;;
3726;SDS011;1879;45.876;12.300;2023-09-08T05:11:39;8.77;;;8.00;;
3726;SDS011;1879;45.876;12.300;2023-09-08T05:14:06;8.87;;;7.97;;
3726;SDS011;1879;45.876;12.300;2023-09-08T05:16:33;7.97;;;7.27;;
3726;SDS011;1879;45.876;12.300;2023-09-08T05:19:10;9.17;;;7.50;;
3726;SDS011;1879;45.876;12.300;2023-09-08T05:21:38;9.03;;;8.10;;
3726;SDS011;1879;45.876;12.300;2023-09-08T05:24:05;8.70;;;7.80;;
3726;SDS011;1879;45.876;12.300;2023-09-08T05:26:34;7.63;;;6.93;;
3726;SDS011;1879;45.876;12.300;2023-09-08T05:29:03;9.23;;;8.00;;
3726;SDS011;1879;45.876;12.300;2023-09-08T05:31:30;8.73;;;7.93;;
3726;SDS011;1879;45.876;12.300;2023-09-08T05:33:57;8.20;;;7.50;;
3726;SDS011;1879;45.876;12.300;2023-09-08T05:36:24;7.90;;;7.10;;
3726;SDS011;1879;45.876;12.300;2023-09-08T05:38:51;8.30;;;7.50;;
3726;SDS011;1879;45.876;12.300;2023-09-08T05:41:18;12.17;;;8.03;;
3726;SDS011;1879;45.876;12.300;2023-09-08T05:43:46;7.67;;;6.87;;
3726;SDS011;1879;45.876;12.300;2023-09-08T05:46:13;8.57;;;7.77;;
3726;SDS011;1879;45.876;12.300;2023-09-08T05:48:41;7.60;;;6.80;;
3726;SDS011;1879;45.876;12.300;2023-09-08T05:51:08;8.43;;;7.63;;
3726;SDS011;1879;45.876;12.300;2023-09-08T05:53:35;8.27;;;7.57;;
3726;SDS011;1879;45.876;12.300;2023-09-08T05:56:05;8.50;;;7.57;;
3726;SDS011;1879;45.876;12.300;2023-09-08T05:58:32;8.70;;;7.60;;
3726;SDS011;1879;45.876;12.300;2023-09-08T06:01:00;8.53;;;7.77;;
3726;SDS011;1879;45.876;12.300;2023-09-08T06:03:27;8.47;;;7.67;;
3726;SDS011;1879;45.876;12.300;2023-09-08T06:05:55;8.37;;;7.53;;
3726;SDS011;1879;45.876;12.300;2023-09-08T06:08:22;7.70;;;6.70;;
3726;SDS011;1879;45.876;12.300;2023-09-08T06:10:49;7.80;;;7.10;;
3726;SDS011;1879;45.876;12.300;2023-09-08T06:13:16;8.27;;;7.60;;
3726;SDS011;1879;45.876;12.300;2023-09-08T06:15:43;7.87;;;7.27;;
3726;SDS011;1879;45.876;12.300;2023-09-08T06:18:13;8.10;;;6.40;;
3726;SDS011;1879;45.876;12.300;2023-09-08T06:20:44;7.97;;;7.27;;
3726;SDS011;1879;45.876;12.300;2023-09-08T06:23:12;8.10;;;7.30;;
3726;SDS011;1879;45.876;12.300;2023-09-08T06:25:39;7.50;;;6.90;;
3726;SDS011;1879;45.876;12.300;2023-09-08T06:28:06;7.77;;;7.07;;
3726;SDS011;1879;45.876;12.300;2023-09-08T06:30:33;8.00;;;7.20;;
3726;SDS011;1879;45.876;12.300;2023-09-08T06:33:00;9.20;;;7.03;;
3726;SDS011;1879;45.876;12.300;2023-09-08T06:35:29;7.47;;;6.80;;
3726;SDS011;1879;45.876;12.300;2023-09-08T06:37:56;7.97;;;7.20;;
3726;SDS011;1879;45.876;12.300;2023-09-08T06:40:25;8.37;;;7.57;;
3726;SDS011;1879;45.876;12.300;2023-09-08T06:42:52;13.37;;;7.87;;
3726;SDS011;1879;45.876;12.300;2023-09-08T06:45:19;36.10;;;10.60;;
3726;SDS011;1879;45.876;12.300;2023-09-08T06:47:46;8.47;;;7.60;;
3726;SDS011;1879;45.876;12.300;2023-09-08T06:50:15;8.70;;;7.60;;
3726;SDS011;1879;45.876;12.300;2023-09-08T06:52:46;18.30;;;8.30;;
3726;SDS011;1879;45.876;12.300;2023-09-08T06:55:13;9.67;;;7.50;;
3726;SDS011;1879;45.876;12.300;2023-09-08T06:57:41;13.30;;;6.63;;
3726;SDS011;1879;45.876;12.300;2023-09-08T07:00:08;8.17;;;7.40;;
3726;SDS011;1879;45.876;12.300;2023-09-08T07:02:37;12.57;;;7.53;;
3726;SDS011;1879;45.876;12.300;2023-09-08T07:05:04;8.17;;;7.37;;
3726;SDS011;1879;45.876;12.300;2023-09-08T07:07:33;7.63;;;6.97;;
3726;SDS011;1879;45.876;12.300;2023-09-08T07:10:02;9.73;;;7.67;;
3726;SDS011;1879;45.876;12.300;2023-09-08T07:12:30;8.10;;;7.30;;
3726;SDS011;1879;45.876;12.300;2023-09-08T07:14:57;7.90;;;7.20;;
3726;SDS011;1879;45.876;12.300;2023-09-08T07:17:24;8.53;;;7.73;;
3726;SDS011;1879;45.876;12.300;2023-09-08T07:19:52;7.50;;;6.73;;
3726;SDS011;1879;45.876;12.300;2023-09-08T07:22:19;10.30;;;7.33;;
3726;SDS011;1879;45.876;12.300;2023-09-08T07:24:46;8.53;;;7.73;;
3726;SDS011;1879;45.876;12.300;2023-09-08T07:27:14;7.57;;;6.87;;
3726;SDS011;1879;45.876;12.300;2023-09-08T07:29:41;7.67;;;6.90;;
3726;SDS011;1879;45.876;12.300;2023-09-08T07:32:08;10.13;;;7.10;;
3726;SDS011;1879;45.876;12.300;2023-09-08T07:34:35;7.90;;;7.20;;
3726;SDS011;1879;45.876;12.300;2023-09-08T07:37:02;7.23;;;6.63;;
3726;SDS011;1879;45.876;12.300;2023-09-08T07:39:29;10.00;;;7.57;;
3726;SDS011;1879;45.876;12.300;2023-09-08T07:41:57;7.57;;;6.87;;
3726;SDS011;1879;45.876;12.300;2023-09-08T07:44:26;8.20;;;7.10;;
3726;SDS011;1879;45.876;12.300;2023-09-08T07:46:53;12.60;;;7.33;;
3726;SDS011;1879;45.876;12.300;2023-09-08T07:49:21;9.60;;;7.67;;
3726;SDS011;1879;45.876;12.300;2023-09-08T07:51:48;9.27;;;7.00;;
3726;SDS011;1879;45.876;12.300;2023-09-08T07:54:15;8.10;;;7.40;;
3726;SDS011;1879;45.876;12.300;2023-09-08T07:56:42;9.13;;;6.67;;
3726;SDS011;1879;45.876;12.300;2023-09-08T07:59:09;8.10;;;6.90;;
3726;SDS011;1879;45.876;12.300;2023-09-08T08:01:37;9.00;;;7.93;;
3726;SDS011;1879;45.876;12.300;2023-09-08T08:04:04;8.50;;;6.87;;
3726;SDS011;1879;45.876;12.300;2023-09-08T08:06:31;9.87;;;7.47;;
3726;SDS011;1879;45.876;12.300;2023-09-08T08:08:58;7.53;;;6.70;;
3726;SDS011;1879;45.876;12.300;2023-09-08T08:11:25;7.90;;;7.20;;
3726;SDS011;1879;45.876;12.300;2023-09-08T08:13:53;7.77;;;6.97;;
3726;SDS011;1879;45.876;12.300;2023-09-08T08:16:21;8.63;;;7.20;;
3726;SDS011;1879;45.876;12.300;2023-09-08T08:18:50;8.10;;;7.20;;
3726;SDS011;1879;45.876;12.300;2023-09-08T08:21:17;8.87;;;6.80;;
3726;SDS011;1879;45.876;12.300;2023-09-08T08:23:44;7.03;;;6.43;;
3726;SDS011;1879;45.876;12.300;2023-09-08T08:26:11;7.43;;;6.73;;
3726;SDS011;1879;45.876;12.300;2023-09-08T08:28:38;9.73;;;6.97;;
3726;SDS011;1879;45.876;12.300;2023-09-08T08:31:05;7.03;;;6.20;;
3726;SDS011;1879;45.876;12.300;2023-09-08T08:33:32;7.23;;;6.53;;
3726;SDS011;1879;45.876;12.300;2023-09-08T08:36:01;7.67;;;6.97;;
3726;SDS011;1879;45.876;12.300;2023-09-08T08:38:28;8.43;;;6.70;;
3726;SDS011;1879;45.876;12.300;2023-09-08T08:41:01;11.20;;;7.33;;
3726;SDS011;1879;45.876;12.300;2023-09-08T08:43:29;7.87;;;7.10;;
3726;SDS011;1879;45.876;12.300;2023-09-08T08:45:57;7.07;;;5.93;;
3726;SDS011;1879;45.876;12.300;2023-09-08T08:48:26;8.03;;;7.03;;
3726;SDS011;1879;45.876;12.300;2023-09-08T08:50:55;7.73;;;6.93;;
3726;SDS011;1879;45.876;12.300;2023-09-08T08:53:25;7.40;;;6.70;;
3726;SDS011;1879;45.876;12.300;2023-09-08T08:55:53;7.70;;;7.00;;
3726;SDS011;1879;45.876;12.300;2023-09-08T08:58:27;9.53;;;7.30;;
3726;SDS011;1879;45.876;12.300;2023-09-08T09:00:54;8.53;;;6.70;;
3726;SDS011;1879;45.876;12.300;2023-09-08T09:03:23;9.80;;;6.30;;
3726;SDS011;1879;45.876;12.300;2023-09-08T09:05:52;7.83;;;5.77;;
3726;SDS011;1879;45.876;12.300;2023-09-08T09:08:19;6.87;;;6.27;;
3726;SDS011;1879;45.876;12.300;2023-09-08T09:10:50;10.73;;;7.20;;
3726;SDS011;1879;45.876;12.300;2023-09-08T09:13:17;6.83;;;6.23;;
3726;SDS011;1879;45.876;12.300;2023-09-08T09:15:44;8.50;;;6.40;;
3726;SDS011;1879;45.876;12.300;2023-09-08T09:18:11;7.40;;;6.67;;
3726;SDS011;1879;45.876;12.300;2023-09-08T09:20:39;13.03;;;6.80;;
3726;SDS011;1879;45.876;12.300;2023-09-08T09:23:07;7.87;;;6.50;;
3726;SDS011;1879;45.876;12.300;2023-09-08T09:25:35;9.10;;;7.00;;
3726;SDS011;1879;45.876;12.300;2023-09-08T09:28:04;7.30;;;6.60;;
3726;SDS011;1879;45.876;12.300;2023-09-08T09:30:46;11.10;;;5.77;;
3726;SDS011;1879;45.876;12.300;2023-09-08T09:33:14;7.43;;;6.73;;
3726;SDS011;1879;45.876;12.300;2023-09-08T09:35:42;8.30;;;6.63;;
3726;SDS011;1879;45.876;12.300;2023-09-08T09:38:10;7.90;;;6.47;;
3726;SDS011;1879;45.876;12.300;2023-09-08T09:40:38;8.20;;;6.67;;
3726;SDS011;1879;45.876;12.300;2023-09-08T09:43:07;8.30;;;6.43;;
3726;SDS011;1879;45.876;12.300;2023-09-08T09:45:34;8.20;;;6.30;;
3726;SDS011;1879;45.876;12.300;2023-09-08T09:48:02;8.70;;;7.07;;
3726;SDS011;1879;45.876;12.300;2023-09-08T09:50:31;7.17;;;6.23;;
3726;SDS011;1879;45.876;12.300;2023-09-08T09:52:59;11.30;;;6.20;;
3726;SDS011;1879;45.876;12.300;2023-09-08T09:55:28;7.10;;;6.40;;
3726;SDS011;1879;45.876;12.300;2023-09-08T09:57:57;9.10;;;7.10;;
3726;SDS011;1879;45.876;12.300;2023-09-08T10:00:29;8.13;;;5.77;;
3726;SDS011;1879;45.876;12.300;2023-09-08T10:02:58;11.50;;;6.90;;
3726;SDS011;1879;45.876;12.300;2023-09-08T10:05:26;7.00;;;6.30;;
3726;SDS011;1879;45.876;12.300;2023-09-08T10:07:53;10.83;;;7.13;;
3726;SDS011;1879;45.876;12.300;2023-09-08T10:10:21;8.70;;;6.77;;
3726;SDS011;1879;45.876;12.300;2023-09-08T10:12:52;7.03;;;6.43;;
3726;SDS011;1879;45.876;12.300;2023-09-08T10:15:21;6.80;;;6.20;;
3726;SDS011;1879;45.876;12.300;2023-09-08T10:17:53;6.13;;;5.63;;
3726;SDS011;1879;45.876;12.300;2023-09-08T10:20:22;10.40;;;6.00;;
3726;SDS011;1879;45.876;12.300;2023-09-08T10:22:52;8.33;;;6.27;;
3726;SDS011;1879;45.876;12.300;2023-09-08T10:25:21;10.80;;;6.80;;
3726;SDS011;1879;45.876;12.300;2023-09-08T10:27:51;10.70;;;6.40;;
3726;SDS011;1879;45.876;12.300;2023-09-08T10:30:19;8.00;;;6.80;;
3726;SDS011;1879;45.876;12.300;2023-09-08T10:32:47;6.47;;;5.80;;
3726;SDS011;1879;45.876;12.300;2023-09-08T10:35:17;9.77;;;5.70;;
3726;SDS011;1879;45.876;12.300;2023-09-08T10:37:45;7.20;;;6.60;;
3726;SDS011;1879;45.876;12.300;2023-09-08T10:40:21;6.50;;;6.00;;
3726;SDS011;1879;45.876;12.300;2023-09-08T10:42:49;6.53;;;5.97;;
3726;SDS011;1879;45.876;12.300;2023-09-08T10:45:31;7.77;;;6.20;;
3726;SDS011;1879;45.876;12.300;2023-09-08T10:47:58;9.23;;;5.87;;
3726;SDS011;1879;45.876;12.300;2023-09-08T10:50:29;6.30;;;5.80;;
3726;SDS011;1879;45.876;12.300;2023-09-08T10:53:05;7.93;;;6.67;;
3726;SDS011;1879;45.876;12.300;2023-09-08T10:55:36;6.63;;;5.70;;
3726;SDS011;1879;45.876;12.300;2023-09-08T10:58:06;7.00;;;6.30;;
3726;SDS011;1879;45.876;12.300;2023-09-08T11:00:45;6.90;;;6.30;;
3726;SDS011;1879;45.876;12.300;2023-09-08T11:03:13;6.30;;;5.63;;
3726;SDS011;1879;45.876;12.300;2023-09-08T11:05:53;7.00;;;6.40;;
3726;SDS011;1879;45.876;12.300;2023-09-08T11:08:20;6.97;;;6.33;;
3726;SDS011;1879;45.876;12.300;2023-09-08T11:10:48;7.00;;;6.40;;
3726;SDS011;1879;45.876;12.300;2023-09-08T11:13:16;7.50;;;6.67;;
3726;SDS011;1879;45.876;12.300;2023-09-08T11:15:43;6.50;;;5.80;;
3726;SDS011;1879;45.876;12.300;2023-09-08T11:18:10;7.43;;;6.00;;
3726;SDS011;1879;45.876;12.300;2023-09-08T11:20:37;6.63;;;5.87;;
3726;SDS011;1879;45.876;12.300;2023-09-08T11:23:05;6.50;;;5.80;;
3726;SDS011;1879;45.876;12.300;2023-09-08T11:25:32;6.37;;;5.77;;
3726;SDS011;1879;45.876;12.300;2023-09-08T11:28:00;7.87;;;6.07;;
3726;SDS011;1879;45.876;12.300;2023-09-08T11:30:27;6.20;;;5.60;;
3726;SDS011;1879;45.876;12.300;2023-09-08T11:32:55;6.63;;;5.90;;
3726;SDS011;1879;45.876;12.300;2023-09-08T11:35:26;6.93;;;6.07;;
3726;SDS011;1879;45.876;12.300;2023-09-08T11:37:58;9.03;;;6.00;;
3726;SDS011;1879;45.876;12.300;2023-09-08T11:40:29;6.60;;;6.00;;
3726;SDS011;1879;45.876;12.300;2023-09-08T11:42:57;5.77;;;5.27;;
3726;SDS011;1879;45.876;12.300;2023-09-08T11:45:25;6.30;;;4.60;;
3726;SDS011;1879;45.876;12.300;2023-09-08T11:47:53;6.23;;;5.73;;
3726;SDS011;1879;45.876;12.300;2023-09-08T11:50:21;6.77;;;6.13;;
3726;SDS011;1879;45.876;12.300;2023-09-08T11:52:49;8.97;;;5.50;;
3726;SDS011;1879;45.876;12.300;2023-09-08T11:55:17;6.07;;;5.30;;
3726;SDS011;1879;45.876;12.300;2023-09-08T11:57:48;6.20;;;5.67;;
3726;SDS011;1879;45.876;12.300;2023-09-08T12:00:17;5.67;;;5.20;;
3726;SDS011;1879;45.876;12.300;2023-09-08T12:02:48;5.63;;;5.10;;
3726;SDS011;1879;45.876;12.300;2023-09-08T12:05:20;6.70;;;6.00;;
3726;SDS011;1879;45.876;12.300;2023-09-08T12:07:49;6.90;;;5.50;;
3726;SDS011;1879;45.876;12.300;2023-09-08T12:10:16;5.90;;;5.30;;
3726;SDS011;1879;45.876;12.300;2023-09-08T12:12:44;7.33;;;6.73;;
3726;SDS011;1879;45.876;12.300;2023-09-08T12:18:10;7.47;;;6.60;;
3726;SDS011;1879;45.876;12.300;2023-09-08T12:20:40;8.80;;;7.87;;
3726;SDS011;1879;45.876;12.300;2023-09-08T12:23:15;8.20;;;7.40;;
3726;SDS011;1879;45.876;12.300;2023-09-08T12:25:46;7.67;;;7.07;;
3726;SDS011;1879;45.876;12.300;2023-09-08T12:28:13;6.60;;;6.00;;
3726;SDS011;1879;45.876;12.300;2023-09-08T12:30:43;8.00;;;6.63;;
3726;SDS011;1879;45.876;12.300;2023-09-08T12:33:11;6.77;;;6.27;;
3726;SDS011;1879;45.876;12.300;2023-09-08T12:35:42;8.10;;;6.20;;
3726;SDS011;1879;45.876;12.300;2023-09-08T12:38:09;7.50;;;6.83;;
3726;SDS011;1879;45.876;12.300;2023-09-08T12:40:37;7.57;;;6.63;;
3726;SDS011;1879;45.876;12.300;2023-09-08T12:43:04;7.13;;;6.63;;
3726;SDS011;1879;45.876;12.300;2023-09-08T12:45:32;6.03;;;5.43;;
3726;SDS011;1879;45.876;12.300;2023-09-08T12:48:00;5.53;;;5.13;;
3726;SDS011;1879;45.876;12.300;2023-09-08T12:50:30;11.60;;;5.60;;
3726;SDS011;1879;45.876;12.300;2023-09-08T12:52:57;5.17;;;4.77;;
3726;SDS011;1879;45.876;12.300;2023-09-08T12:55:24;5.90;;;5.40;;
3726;SDS011;1879;45.876;12.300;2023-09-08T12:57:51;5.53;;;5.10;;
3726;SDS011;1879;45.876;12.300;2023-09-08T13:00:20;5.43;;;4.93;;
3726;SDS011;1879;45.876;12.300;2023-09-08T13:02:48;5.43;;;4.93;;
3726;SDS011;1879;45.876;12.300;2023-09-08T13:05:15;5.33;;;4.83;;
3726;SDS011;1879;45.876;12.300;2023-09-08T13:07:47;5.67;;;5.13;;
3726;SDS011;1879;45.876;12.300;2023-09-08T13:10:14;5.60;;;5.10;;
3726;SDS011;1879;45.876;12.300;2023-09-08T13:12:41;5.93;;;5.43;;
3726;SDS011;1879;45.876;12.300;2023-09-08T13:15:09;6.43;;;5.40;;
3726;SDS011;1879;45.876;12.300;2023-09-08T13:17:36;6.17;;;5.67;;
3726;SDS011;1879;45.876;12.300;2023-09-08T13:20:03;6.20;;;5.60;;
3726;SDS011;1879;45.876;12.300;2023-09-08T13:22:31;5.63;;;5.13;;
3726;SDS011;1879;45.876;12.300;2023-09-08T13:25:00;5.57;;;5.07;;
3726;SDS011;1879;45.876;12.300;2023-09-08T13:27:27;7.93;;;4.73;;
3726;SDS011;1879;45.876;12.300;2023-09-08T13:29:54;8.00;;;5.30;;
3726;SDS011;1879;45.876;12.300;2023-09-08T13:32:34;5.87;;;5.27;;
3726;SDS011;1879;45.876;12.300;2023-09-08T13:35:02;5.30;;;4.90;;
3726;SDS011;1879;45.876;12.300;2023-09-08T13:37:29;5.10;;;4.70;;
3726;SDS011;1879;45.876;12.300;2023-09-08T13:39:56;6.40;;;4.83;;
3726;SDS011;1879;45.876;12.300;2023-09-08T13:42:25;6.33;;;5.73;;
3726;SDS011;1879;45.876;12.300;2023-09-08T13:44:52;5.47;;;4.97;;
3726;SDS011;1879;45.876;12.300;2023-09-08T13:47:20;5.47;;;4.97;;
3726;SDS011;1879;45.876;12.300;2023-09-08T13:49:48;5.17;;;4.77;;
3726;SDS011;1879;45.876;12.300;2023-09-08T13:52:15;5.60;;;5.00;;
3726;SDS011;1879;45.876;12.300;2023-09-08T13:54:42;5.70;;;5.20;;
3726;SDS011;1879;45.876;12.300;2023-09-08T13:57:09;7.17;;;4.93;;
3726;SDS011;1879;45.876;12.300;2023-09-08T13:59:37;5.67;;;5.17;;
3726;SDS011;1879;45.876;12.300;2023-09-08T14:02:04;5.87;;;5.37;;
3726;SDS011;1879;45.876;12.300;2023-09-08T14:04:31;6.97;;;5.27;;
3726;SDS011;1879;45.876;12.300;2023-09-08T14:06:58;6.13;;;5.63;;
3726;SDS011;1879;45.876;12.300;2023-09-08T14:09:25;8.77;;;5.30;;
3726;SDS011;1879;45.876;12.300;2023-09-08T14:11:53;5.40;;;5.00;;
3726;SDS011;1879;45.876;12.300;2023-09-08T14:14:21;5.30;;;4.80;;
3726;SDS011;1879;45.876;12.300;2023-09-08T14:16:50;5.67;;;5.10;;
3726;SDS011;1879;45.876;12.300;2023-09-08T14:19:17;5.50;;;5.00;;
3726;SDS011;1879;45.876;12.300;2023-09-08T14:21:44;7.07;;;5.47;;
3726;SDS011;1879;45.876;12.300;2023-09-08T14:24:11;5.70;;;5.20;;
3726;SDS011;1879;45.876;12.300;2023-09-08T14:26:38;5.53;;;5.13;;
3726;SDS011;1879;45.876;12.300;2023-09-08T14:29:05;6.93;;;5.40;;
3726;SDS011;1879;45.876;12.300;2023-09-08T14:31:32;8.83;;;5.23;;
3726;SDS011;1879;45.876;12.300;2023-09-08T14:34:01;9.33;;;5.13;;
3726;SDS011;1879;45.876;12.300;2023-09-08T14:36:29;5.40;;;5.00;;
3726;SDS011;1879;45.876;12.300;2023-09-08T14:38:56;5.73;;;5.23;;
3726;SDS011;1879;45.876;12.300;2023-09-08T14:41:23;6.43;;;5.13;;
3726;SDS011;1879;45.876;12.300;2023-09-08T14:43:50;6.37;;;5.87;;
3726;SDS011;1879;45.876;12.300;2023-09-08T14:46:17;6.00;;;5.50;;
3726;SDS011;1879;45.876;12.300;2023-09-08T14:48:44;7.20;;;5.60;;
3726;SDS011;1879;45.876;12.300;2023-09-08T14:51:13;8.67;;;5.33;;
3726;SDS011;1879;45.876;12.300;2023-09-08T14:53:40;5.83;;;5.20;;
3726;SDS011;1879;45.876;12.300;2023-09-08T14:56:07;5.50;;;5.10;;
3726;SDS011;1879;45.876;12.300;2023-09-08T14:58:34;5.33;;;4.83;;
3726;SDS011;1879;45.876;12.300;2023-09-08T15:01:01;6.87;;;5.33;;
3726;SDS011;1879;45.876;12.300;2023-09-08T15:03:32;5.60;;;5.07;;
3726;SDS011;1879;45.876;12.300;2023-09-08T15:05:59;6.00;;;5.50;;
3726;SDS011;1879;45.876;12.300;2023-09-08T15:08:28;7.93;;;6.53;;